This demonstration page uses our WeatherBlox Daily Observations layout. Learn more.

38.89511, -77.03637

Hourly Observations for June 16, 2018

Temp ( °F °C ) Dew Point ( °F °C ) Humidity (%) Winds ( mph kmh ) Pressure ( in mb ) Visibility ( mi km ) Precip ( " mm )
12:52 am 00:52 Clear 70 21.1 58 14.4 66 66 SW 3 6 30.03 1017 10 16.09344 0 0
1:52 am 01:52 Clear 69 20.6 58 14.4 68 68 Calm 30.03 1017 10 16.09344 0 0
2:52 am 02:52 Clear 68 20 58 14.4 70 70 S 3 6 30.03 1017 10 16.09344 0 0
3:52 am 03:52 Clear 66 18.9 57 13.9 73 73 N 3 6 30.03 1017 10 16.09344 0 0
4:52 am 04:52 Partly Cloudy 65 18.3 56 13.3 73 73 N 5 7 30.06 1018 10 16.09344 0 0
5:52 am 05:52 Mostly Cloudy 65 18.3 56 13.3 73 73 Calm 30.06 1018 10 16.09344 0 0
6:52 am 06:52 Mostly Cloudy 67 19.4 60 15.6 79 79 Calm 30.06 1018 10 16.09344 0 0
7:52 am 07:52 Sunny 69 20.6 60 15.6 73 73 Calm 30.06 1018 10 16.09344 0 0
8:52 am 08:52 Mostly Sunny 74 23.3 57 13.9 56 56 ENE 3 6 30.06 1018 10 16.09344 0 0
9:52 am 09:52 Sunny 77 25 57 13.9 50 50 SSE 5 7 30.06 1018 10 16.09344 0 0
10:52 am 10:52 Partly Cloudy 79 26.1 59 15 50 50 S 10 17 30.06 1018 10 16.09344 0 0
11:52 am 11:52 Mostly Cloudy 81 27.2 58 14.4 45 45 S 10 17 30.06 1018 10 16.09344 0 0
12:52 pm 12:52 Partly Cloudy 83 28.3 59 15 44 44 S 8 13 30.03 1017 10 16.09344 0 0
1:52 pm 13:52 Partly Cloudy 84 28.9 56 13.3 38 38 SSE 6 9 30.03 1017 10 16.09344 0 0
2:52 pm 14:52 Mostly Sunny 85 29.4 59 15 42 42 SSE 6 9 30 1016 10 16.09344 0 0
3:52 pm 15:52 Partly Cloudy 85 29.4 56 13.3 37 37 SE 5 7 30 1016 10 16.09344 0 0
4:52 pm 16:52 Partly Cloudy 88 31.1 55 12.8 33 33 NNE 8 13 30 1016 10 16.09344 0 0
5:52 pm 17:52 Mostly Cloudy 86 30 54 12.2 33 33 Calm 29.97 1015 10 16.09344 0 0
6:52 pm 18:52 Mostly Cloudy 87 30.6 55 12.8 34 34 WSW 9 15 29.97 1015 10 16.09344 0 0
7:52 pm 19:52 Mostly Cloudy 84 28.9 57 13.9 40 40 SW 9 15 30 1016 10 16.09344 0 0
8:52 pm 20:52 Mostly Cloudy 79 26.1 62 16.7 56 56 S 5 7 30 1016 10 16.09344 0 0
9:52 pm 21:52 Partly Cloudy 77 25 64 17.8 64 64 S 6 9 30 1016 10 16.09344 0 0
10:52 pm 22:52 Mostly Clear 77 25 61 16.1 58 58 SSE 5 7 30.03 1017 10 16.09344 0 0
11:52 pm 23:52 Partly Cloudy 76 24.4 62 16.7 62 62 S 6 9 30.03 1017 10 16.09344 0 0

Powered by AerisWeather